Weather reports worldwide

Advertisment
Nidingen, Sweden (2518): temperature & dewpoint: 01.06.2020 05:00:00 - 07.06.2020 05:00:00 (CEST)Nidingen, Sweden (2518): wind speed & gusts: 01.06.2020 05:00:00 - 07.06.2020 05:00:00 (CEST)Nidingen, Sweden (2518): wind direction: 01.06.2020 05:00:00 - 07.06.2020 05:00:00 (CEST)
Date & Time tt [°C] td [°C] ff [km/h] ff [kn] fx [km/h] fx [kn] dd
07.06.2020 05:00:00 12,7 7,9 42 23 51 28 SSW
07.06.2020 04:00:00 12,4 7,9 45 24 53 28 SSW
07.06.2020 03:00:00 12,1 7,4 45 25 53 29 SW
07.06.2020 02:00:00 12,3 7,4 39 21 51 28 SW
07.06.2020 01:00:00 12,6 6,6 42 23 51 28 SW
07.06.2020 00:00:00 12,9 7,1 42 23 53 28 SW
06.06.2020 23:00:00 13,1 7,5 35 19 48 26 SW
06.06.2020 22:00:00 13,1 6,9 37 20 55 30 SW
06.06.2020 21:00:00 13,4 8,5 42 23 51 27 SW
06.06.2020 20:00:00 12,6 8,7 33 18 45 25 SSW
06.06.2020 19:00:00 12,3 8,4 40 21 51 28 SSW
06.06.2020 18:00:00 11,9 8,0 46 25 60 32 SW
06.06.2020 17:00:00 12,5 8,0 46 25 57 31 SW
06.06.2020 16:00:00 12,3 8,0 42 23 54 29 WSW
06.06.2020 15:00:00 12,6 7,9 39 21 59 32 WSW
06.06.2020 14:00:00 12,4 8,7 45 25 56 30 WSW
06.06.2020 13:00:00 13,2 9,4 37 20 48 26 WSW
06.06.2020 12:00:00 13,2 9,8 14 8 34 18 SW
06.06.2020 11:00:00 12,6 9,2 9 5 14 8 SE
06.06.2020 10:00:00 11,8 8,8 11 6 25 13 SE
06.06.2020 09:00:00 12,2 8,9 20 11 26 14 SE
06.06.2020 08:00:00 12,3 8,4 21 12 26 14 ESE
06.06.2020 07:00:00 11,5 7,8 21 11 28 15 E
06.06.2020 06:00:00 10,8 7,5 23 13 28 15 ENE
06.06.2020 05:00:00 10,3 7,4 22 12 27 15 E
06.06.2020 04:00:00 10,3 7,2 20 11 25 14 E
06.06.2020 03:00:00 10,9 7,4 18 10 26 14 E
06.06.2020 02:00:00 11,2 7,7 21 12 26 14 E
06.06.2020 01:00:00 11,3 7,6 19 10 22 12 E
06.06.2020 00:00:00 12,1 7,4 19 10 23 13 ESE
05.06.2020 23:00:00 13,1 7,1 14 7 23 12 SSE
05.06.2020 22:00:00 13,1 7,8 18 10 24 13 SSE
05.06.2020 21:00:00 13,2 6,5 16 8 23 12 S
05.06.2020 20:00:00 13,3 8,2 20 11 25 14 S
05.06.2020 19:00:00 13,2 7,4 15 8 20 11 S
05.06.2020 18:00:00 13,5 7,7 16 9 22 12 SSW
05.06.2020 17:00:00 14,1 8,3 19 11 26 14 SW
05.06.2020 16:00:00 13,4 8,0 22 12 29 16 SW
05.06.2020 15:00:00 12,9 8,8 23 12 31 17 SW
05.06.2020 14:00:00 13,2 10,0 21 12 26 14 SW
05.06.2020 13:00:00 12,6 10,1 22 12 26 14 SW
05.06.2020 12:00:00 12,7 10,6 22 12 32 17 SW
05.06.2020 11:00:00 12,6 11,2 26 14 48 26 SW
05.06.2020 10:00:00 12,7 11,8 37 20 46 25 SE
05.06.2020 09:00:00 12,5 11,4 40 21 54 29 ESE
05.06.2020 08:00:00 12,5 11,1 44 24 55 30 ESE
05.06.2020 07:00:00 12,1 10,5 48 26 60 32 ESE
05.06.2020 06:00:00 12,1 10,3 45 24 59 32 ESE
05.06.2020 05:00:00 12,5 9,7 46 25 56 30 ESE
05.06.2020 04:00:00 13,6 8,6 45 24 61 33 ESE
05.06.2020 03:00:00 14,3 8,0 44 24 54 29 ESE
05.06.2020 02:00:00 14,3 7,8 42 23 55 30 ESE
05.06.2020 01:00:00 14,7 7,7 40 22 59 32 ESE
05.06.2020 00:00:00 15,3 7,8 45 25 56 30 ESE
04.06.2020 23:00:00 16,0 8,2 43 23 56 30 ESE
04.06.2020 22:00:00 16,5 9,7 32 17 41 22 ESE
04.06.2020 21:00:00 17,1 9,3 29 16 38 20 SE
04.06.2020 20:00:00 16,6 11,1 20 11 34 19 SE
04.06.2020 19:00:00 16,8 10,9 24 13 30 16 SSE
04.06.2020 18:00:00 17,3 9,9 26 14 36 20 SSE
04.06.2020 17:00:00 17,4 10,5 27 14 36 19 SSE
04.06.2020 16:00:00 17,2 10,3 29 16 37 20 S
04.06.2020 15:00:00 17,5 10,6 29 16 37 20 S
04.06.2020 14:00:00 17,7 10,1 15 8 23 13 S
04.06.2020 13:00:00 17,1 9,5 17 9 24 13 S
04.06.2020 12:00:00 16,6 8,3 21 11 30 16 SE
04.06.2020 11:00:00 15,9 6,9 25 13 33 18 SE
04.06.2020 10:00:00 15,2 5,7 25 13 38 20 SE
04.06.2020 09:00:00 14,3 5,1 32 17 38 20 SE
04.06.2020 08:00:00 13,2 6,1 29 15 34 18 ESE
04.06.2020 07:00:00 12,5 5,6 28 15 34 18 ESE
04.06.2020 06:00:00 12,8 5,9 29 15 37 20 SE
04.06.2020 05:00:00 12,9 6,5 32 17 38 21 SE
04.06.2020 04:00:00 13,0 7,0 31 17 36 19 SE
04.06.2020 03:00:00 13,6 7,8 32 17 39 21 SE
04.06.2020 02:00:00 14,0 8,8 35 19 44 24 SSE
04.06.2020 01:00:00 14,8 9,2 38 20 45 24 SSE
04.06.2020 00:00:00 15,9 12,3 26 14 33 18 S
03.06.2020 23:00:00 15,7 12,4 16 9 20 11 S
03.06.2020 22:00:00 16,0 12,1 18 10 19 10 S
03.06.2020 21:00:00 16,2 11,1 8 5 9 5 S
03.06.2020 20:00:00 16,6 10,9 0 0 5 3 N
03.06.2020 19:00:00 16,9 11,2 2 1 5 3 S
03.06.2020 18:00:00 16,5 11,0 4 2 8 4 S
03.06.2020 17:00:00 17,1 11,6 7 4 10 5 SSW
03.06.2020 16:00:00 16,8 11,5 6 3 11 6 SSW
03.06.2020 15:00:00 16,8 12,3 7 4 9 5 SSW
03.06.2020 14:00:00 15,5 12,3 9 5 16 8 S
03.06.2020 13:00:00 15,2 12,3 14 8 21 11 S
03.06.2020 12:00:00 14,6 11,9 20 11 24 13 S
03.06.2020 11:00:00 14,9 12,4 22 12 27 15 SSE
03.06.2020 10:00:00 14,4 11,7 22 12 27 14 SSE
03.06.2020 09:00:00 13,7 11,0 19 11 24 13 SSE
03.06.2020 08:00:00 13,5 11,2 19 11 23 12 SSE
03.06.2020 07:00:00 13,4 10,9 18 10 21 11 SSE
03.06.2020 06:00:00 13,2 9,8 10 5 16 8 ESE
03.06.2020 05:00:00 13,8 10,4 4 2 5 3 ESE
03.06.2020 04:00:00 14,2 10,2 4 2 11 6 SE
03.06.2020 03:00:00 14,3 9,9 9 5 11 6 ESE
03.06.2020 02:00:00 13,5 10,1 9 5 11 6 E
03.06.2020 01:00:00 14,8 11,0 8 4 16 9 N
03.06.2020 00:00:00 15,3 10,7 11 6 19 10 N
02.06.2020 23:00:00 15,5 10,9 14 7 16 9 NNW
02.06.2020 22:00:00 16,1 10,2 10 5 16 9 N
02.06.2020 21:00:00 16,7 9,6 14 8 18 10 N
02.06.2020 20:00:00 16,9 10,3 14 8 20 11 N
02.06.2020 19:00:00 16,9 11,6 16 9 24 13 N
02.06.2020 18:00:00 17,5 11,7 22 12 25 13 NNW
02.06.2020 17:00:00 17,5 13,0 16 9 19 10 NNW
02.06.2020 16:00:00 17,3 13,4 13 7 15 8 NNW
02.06.2020 15:00:00 17,5 13,2 15 8 17 9 NW
02.06.2020 14:00:00 17,6 13,1 13 7 16 9 NNW
02.06.2020 13:00:00 17,3 12,8 16 8 17 9 NW
02.06.2020 12:00:00 16,8 13,1 11 6 15 8 NW
02.06.2020 11:00:00 17,2 12,9 14 7 16 9 WNW
02.06.2020 10:00:00 16,5 12,5 11 6 16 9 NW
02.06.2020 09:00:00 16,2 13,7 15 8 19 11 WNW
02.06.2020 08:00:00 15,4 13,8 10 6 15 8 WNW
02.06.2020 07:00:00 14,4 13,3 7 4 15 8 N
02.06.2020 06:00:00 13,9 12,9 13 7 15 8 NW
02.06.2020 05:00:00 14,0 12,7 11 6 20 11 N
02.06.2020 04:00:00 14,3 12,2 19 11 24 13 NNW
02.06.2020 03:00:00 14,3 12,3 18 10 23 13 NW
02.06.2020 02:00:00 14,4 11,9 18 10 27 14 NNW
02.06.2020 01:00:00 14,8 11,8 24 13 35 19 NNW
02.06.2020 00:00:00 15,4 11,0 32 18 41 22 NNW
01.06.2020 23:00:00 15,3 11,5 31 17 36 20 NW
01.06.2020 22:00:00 15,3 12,1 28 15 32 17 NNW
01.06.2020 21:00:00 15,5 11,9 28 15 32 18 NNW
01.06.2020 20:00:00 16,0 11,8 26 14 29 16 NW
01.06.2020 19:00:00 16,5 11,8 23 12 30 16 NNW
01.06.2020 18:00:00 16,5 11,8 26 14 30 16 NW
01.06.2020 17:00:00 16,9 12,0 26 14 30 16 NW
01.06.2020 16:00:00 16,8 11,3 24 13 28 15 NW
01.06.2020 15:00:00 17,3 11,3 21 12 27 15 NW
01.06.2020 14:00:00 17,5 11,3 23 12 27 15 NW
01.06.2020 13:00:00 17,3 10,7 22 12 24 13 NW
01.06.2020 12:00:00 16,8 10,9 15 8 18 10 WNW
01.06.2020 11:00:00 16,5 11,0 13 7 16 9 WNW
01.06.2020 10:00:00 15,9 10,9 6 3 8 4 WNW
01.06.2020 09:00:00 16,3 9,0 3 1 11 6 NNE
01.06.2020 08:00:00 15,0 11,2 9 5 13 7 ENE
01.06.2020 07:00:00 14,0 11,0 10 5 13 7 E
01.06.2020 06:00:00 13,1 10,5 9 5 14 7 E
01.06.2020 05:00:00 13,0 10,2 10 6 14 7 E

tt = temperature
td = dewpoint
ff = wind speed
fx = gusts
dd = wind direction

Next stations